createdAt,value
2018-02-09T00:00:25.890Z,64.33
2018-02-09T00:02:53.484Z,56.10
2018-02-09T00:05:21.795Z,61.33
2018-02-09T00:07:50.131Z,67.03
2018-02-09T00:10:17.691Z,57.63
2018-02-09T00:12:45.271Z,61.90
2018-02-09T00:15:12.827Z,51.20
2018-02-09T00:17:40.399Z,58.33
2018-02-09T00:20:07.955Z,70.17
2018-02-09T00:22:47.343Z,80.93
2018-02-09T00:25:14.892Z,66.57
2018-02-09T00:27:42.480Z,74.57
2018-02-09T00:30:10.027Z,77.20
2018-02-09T00:32:38.468Z,58.27
2018-02-09T00:35:06.025Z,63.87
2018-02-09T00:37:33.582Z,74.07
2018-02-09T00:40:01.151Z,81.93
2018-02-09T00:42:28.698Z,63.60
2018-02-09T00:44:56.267Z,78.27
2018-02-09T00:47:23.821Z,60.87
2018-02-09T00:49:51.396Z,69.73
2018-02-09T00:52:18.945Z,72.23
2018-02-09T00:54:46.515Z,68.00
2018-02-09T00:57:14.064Z,59.33
2018-02-09T00:59:42.394Z,71.43
2018-02-09T01:02:09.947Z,57.07
2018-02-09T01:04:38.286Z,73.40
2018-02-09T01:07:05.831Z,73.27
2018-02-09T01:09:33.403Z,82.37
2018-02-09T01:12:00.951Z,65.10
2018-02-09T01:14:33.321Z,72.23
2018-02-09T01:17:00.871Z,63.83
2018-02-09T01:19:28.448Z,66.30
2018-02-09T01:21:55.998Z,72.90
2018-02-09T01:24:23.571Z,70.83
2018-02-09T01:26:51.112Z,65.37
2018-02-09T01:29:18.667Z,92.10
2018-02-09T01:31:46.239Z,70.87
2018-02-09T01:34:13.799Z,76.90
2018-02-09T01:36:41.366Z,82.13
2018-02-09T01:39:09.675Z,70.13
2018-02-09T01:41:37.254Z,69.43
2018-02-09T01:44:04.807Z,81.10
2018-02-09T01:46:32.370Z,73.90
2018-02-09T01:48:59.919Z,81.37
2018-02-09T01:51:27.488Z,78.57
2018-02-09T01:53:55.796Z,82.33
2018-02-09T01:56:23.363Z,65.03
2018-02-09T01:58:51.681Z,63.87
2018-02-09T02:01:19.241Z,70.40
2018-02-09T02:03:46.787Z,71.03
2018-02-09T02:06:14.355Z,66.87
2018-02-09T02:08:41.897Z,62.17
2018-02-09T02:11:10.227Z,71.53
2018-02-09T02:13:37.807Z,65.33
2018-02-09T02:16:05.380Z,75.33
2018-02-09T02:18:33.682Z,52.10
2018-02-09T02:21:02.015Z,54.97
2018-02-09T02:23:29.554Z,62.53
2018-02-09T02:25:57.139Z,65.03
2018-02-09T02:28:24.687Z,63.70
2018-02-09T02:30:52.227Z,67.10
2018-02-09T02:33:20.559Z,57.07
2018-02-09T02:35:48.105Z,68.20
2018-02-09T02:38:16.439Z,65.83
2018-02-09T02:40:43.996Z,69.47
2018-02-09T02:43:11.568Z,69.23
2018-02-09T02:45:39.874Z,84.27
2018-02-09T02:48:08.233Z,75.67
2018-02-09T02:50:35.789Z,80.47
2018-02-09T02:53:03.359Z,75.83
2018-02-09T02:55:30.907Z,58.13
2018-02-09T02:57:58.693Z,71.57
2018-02-09T03:00:26.253Z,80.73
2018-02-09T03:02:53.840Z,68.97
2018-02-09T03:05:21.429Z,66.30
2018-02-09T03:07:49.018Z,66.10
2018-02-09T03:10:16.572Z,63.30
2018-02-09T03:12:44.895Z,71.17
2018-02-09T03:15:12.476Z,79.70
2018-02-09T03:17:40.051Z,73.17
2018-02-09T03:20:07.625Z,70.10
2018-02-09T03:22:35.182Z,76.13
2018-02-09T03:25:03.520Z,64.20
2018-02-09T03:27:31.076Z,62.57
2018-02-09T03:29:58.659Z,71.43
2018-02-09T03:32:26.228Z,74.97
2018-02-09T03:34:54.592Z,63.80
2018-02-09T03:37:22.148Z,62.20
2018-02-09T03:39:49.749Z,64.77
2018-02-09T03:42:17.313Z,67.77
2018-02-09T03:44:44.896Z,66.87
2018-02-09T03:47:12.453Z,59.70
2018-02-09T03:49:40.909Z,64.13
2018-02-09T03:52:08.474Z,70.83
2018-02-09T03:54:36.036Z,76.70
2018-02-09T03:57:03.608Z,73.40
2018-02-09T03:59:31.929Z,66.97
2018-02-09T04:01:59.509Z,71.30
2018-02-09T04:04:27.077Z,62.60
2018-02-09T04:06:55.417Z,60.27
2018-02-09T04:09:22.974Z,72.63
2018-02-09T04:11:50.543Z,61.03
2018-02-09T04:14:18.864Z,70.57
2018-02-09T04:16:46.437Z,74.00
2018-02-09T04:19:13.992Z,69.57
2018-02-09T04:21:41.579Z,64.27
2018-02-09T04:24:09.151Z,76.10
2018-02-09T04:26:36.732Z,60.87
2018-02-09T04:29:04.292Z,87.33
2018-02-09T04:31:32.632Z,70.93
2018-02-09T04:34:00.188Z,66.67
2018-02-09T04:36:27.772Z,61.83
2018-02-09T04:38:55.336Z,65.50
2018-02-09T04:41:22.928Z,72.50
2018-02-09T04:43:50.489Z,72.67
2018-02-09T04:46:18.049Z,55.27
2018-02-09T04:48:46.389Z,64.63
2018-02-09T04:51:13.967Z,70.53
2018-02-09T04:53:41.544Z,54.93
2018-02-09T04:56:09.112Z,55.93
2018-02-09T04:58:37.468Z,64.73
2018-02-09T05:01:05.049Z,60.50
2018-02-09T05:03:32.632Z,72.53
2018-02-09T05:06:00.188Z,68.40
2018-02-09T05:08:27.770Z,55.10
2018-02-09T05:10:55.328Z,68.00
2018-02-09T05:13:23.665Z,68.40
2018-02-09T05:15:51.236Z,66.33
2018-02-09T05:18:18.806Z,66.40
2018-02-09T05:20:46.369Z,61.73
2018-02-09T05:23:13.944Z,71.60
2018-02-09T05:25:41.509Z,67.67
2018-02-09T05:28:09.081Z,72.67
2018-02-09T05:30:36.636Z,51.47
2018-02-09T05:33:04.221Z,59.20
2018-02-09T05:35:31.780Z,72.50
2018-02-09T05:38:00.109Z,64.00
2018-02-09T05:40:27.680Z,66.37
2018-02-09T05:42:56.006Z,66.03
2018-02-09T05:45:23.583Z,55.73
2018-02-09T05:47:51.141Z,65.57
2018-02-09T05:50:19.489Z,65.10
2018-02-09T05:52:47.049Z,66.50
2018-02-09T05:55:14.653Z,59.60
2018-02-09T05:57:42.210Z,64.47
2018-02-09T06:00:09.821Z,60.47
2018-02-09T06:02:37.385Z,69.77
2018-02-09T06:05:04.956Z,70.63
2018-02-09T06:07:33.284Z,72.53
2018-02-09T06:10:00.873Z,73.00
2018-02-09T06:12:28.434Z,60.40
2018-02-09T06:14:56.131Z,58.60
2018-02-09T06:17:23.694Z,81.87
2018-02-09T06:19:52.025Z,64.67
2018-02-09T06:22:19.597Z,64.33
2018-02-09T06:24:47.149Z,67.40
2018-02-09T06:27:14.736Z,55.20
2018-02-09T06:29:43.065Z,69.60
2018-02-09T06:32:10.642Z,63.73
2018-02-09T06:34:38.200Z,64.13
2018-02-09T06:37:05.785Z,68.70
2018-02-09T06:39:33.345Z,54.37
2018-02-09T06:42:00.921Z,62.43
2018-02-09T06:44:28.480Z,65.97
2018-02-09T06:46:56.061Z,67.70
2018-02-09T06:49:23.623Z,74.13
2018-02-09T06:51:51.964Z,64.70
2018-02-09T06:54:19.556Z,58.57
2018-02-09T06:56:47.181Z,56.60
2018-02-09T06:59:15.977Z,55.83
2018-02-09T07:01:43.701Z,65.40
2018-02-09T07:04:11.286Z,63.40
2018-02-09T07:06:39.625Z,81.27
2018-02-09T07:09:07.186Z,62.10
2018-02-09T07:11:34.865Z,62.07
2018-02-09T07:14:02.419Z,64.03
2018-02-09T07:16:29.996Z,66.07
2018-02-09T07:18:57.547Z,65.30
2018-02-09T07:21:25.100Z,65.60
2018-02-09T07:23:53.437Z,51.73
2018-02-09T07:26:20.996Z,67.10
2018-02-09T07:28:48.584Z,72.30
2018-02-09T07:31:16.143Z,81.70
2018-02-09T07:33:44.483Z,79.93
2018-02-09T07:36:12.032Z,79.00
2018-02-09T07:38:40.371Z,62.50
2018-02-09T07:41:07.924Z,77.23
2018-02-09T07:43:36.265Z,91.83
2018-02-09T07:46:03.819Z,82.97
2018-02-09T07:48:31.443Z,75.80
2018-02-09T07:50:59.774Z,91.33
2018-02-09T07:53:27.349Z,100.30
2018-02-09T07:55:54.909Z,83.20
2018-02-09T07:58:22.501Z,85.53
2018-02-09T08:00:50.061Z,90.30
2018-02-09T08:03:17.667Z,85.17
2018-02-09T08:05:45.271Z,92.37
2018-02-09T08:08:12.837Z,87.40
2018-02-09T08:10:40.411Z,98.37
2018-02-09T08:13:07.964Z,101.20
2018-02-09T08:15:35.548Z,112.53
2018-02-09T08:18:03.106Z,115.80
2018-02-09T08:20:30.676Z,112.73
2018-02-09T08:22:58.236Z,187.33
2018-02-09T08:25:25.805Z,181.80
2018-02-09T08:27:53.376Z,136.80
2018-02-09T08:30:20.950Z,155.60
2018-02-09T08:32:49.276Z,172.33
2018-02-09T08:35:16.852Z,142.20
2018-02-09T08:37:44.436Z,125.27
2018-02-09T08:40:12.016Z,113.27
2018-02-09T08:42:39.593Z,105.87
2018-02-09T08:45:07.157Z,103.27
2018-02-09T08:47:35.646Z,107.30
2018-02-09T08:50:03.206Z,98.33
2018-02-09T08:52:30.934Z,103.50
2018-02-09T08:54:59.304Z,111.47
2018-02-09T08:57:26.884Z,109.90
2018-02-09T08:59:54.445Z,129.00
2018-02-09T09:02:22.017Z,136.87
2018-02-09T09:04:50.485Z,132.40
2018-02-09T09:07:18.105Z,124.10
2018-02-09T09:09:45.685Z,137.23
2018-02-09T09:12:13.264Z,101.00
2018-02-09T09:14:41.626Z,111.37
2018-02-09T09:17:09.445Z,107.73
2018-02-09T09:19:37.275Z,102.83
2018-02-09T09:22:04.953Z,118.67
2018-02-09T09:24:33.249Z,122.83
2018-02-09T09:27:00.858Z,123.90
2018-02-09T09:29:28.448Z,120.37
2018-02-09T09:31:56.009Z,112.83
2018-02-09T09:34:23.581Z,103.83
2018-02-09T09:36:51.182Z,115.00
2018-02-09T09:39:18.758Z,114.97
2018-02-09T09:41:46.313Z,118.00
2018-02-09T09:44:14.666Z,122.57
2018-02-09T09:46:42.335Z,131.23
2018-02-09T09:49:09.921Z,113.73
2018-02-09T09:51:37.486Z,106.90
2018-02-09T09:54:05.090Z,121.63
2018-02-09T09:56:32.649Z,118.20
2018-02-09T09:59:01.033Z,103.93
2018-02-09T10:01:31.397Z,117.33
2018-02-09T10:03:59.739Z,114.37
2018-02-09T10:06:27.297Z,116.37
2018-02-09T10:08:54.948Z,119.37
2018-02-09T10:11:22.517Z,120.53
2018-02-09T10:13:50.089Z,122.67
2018-02-09T10:16:17.655Z,118.10
2018-02-09T10:18:45.248Z,120.00
2018-02-09T10:21:12.894Z,125.97
2018-02-09T10:23:41.212Z,124.70
2018-02-09T10:26:08.785Z,127.57
2018-02-09T10:28:37.133Z,110.10
2018-02-09T10:31:04.718Z,124.70
2018-02-09T10:33:32.288Z,105.57
2018-02-09T10:36:00.628Z,112.23
2018-02-09T10:38:28.192Z,113.30
2018-02-09T10:40:55.761Z,111.73
2018-02-09T10:43:23.317Z,110.20
2018-02-09T10:45:50.889Z,122.27
2018-02-09T10:48:19.212Z,123.00
2018-02-09T10:50:46.774Z,117.50
2018-02-09T10:53:15.101Z,116.97
2018-02-09T10:55:42.668Z,110.30
2018-02-09T10:58:10.224Z,100.33
2018-02-09T11:00:43.557Z,94.77
2018-02-09T11:03:11.877Z,105.67
2018-02-09T11:05:39.468Z,107.13
2018-02-09T11:08:07.022Z,112.50
2018-02-09T11:10:34.598Z,90.77
2018-02-09T11:13:07.693Z,113.53
2018-02-09T11:15:35.256Z,103.57
2018-02-09T11:18:02.805Z,107.80
2018-02-09T11:20:31.171Z,102.50
2018-02-09T11:22:58.717Z,109.30
2018-02-09T11:25:26.285Z,106.67
2018-02-09T11:27:53.853Z,111.03
2018-02-09T11:30:22.184Z,119.80
2018-02-09T11:32:49.773Z,117.43
2018-02-09T11:35:17.329Z,116.47
2018-02-09T11:37:45.661Z,112.57
2018-02-09T11:40:13.219Z,110.80
2018-02-09T11:42:40.794Z,115.33
2018-02-09T11:45:09.120Z,108.90
2018-02-09T11:47:36.702Z,112.63
2018-02-09T11:50:04.254Z,104.83
2018-02-09T11:52:32.606Z,106.43
2018-02-09T11:55:00.889Z,107.70
2018-02-09T11:57:28.459Z,123.70
2018-02-09T11:59:56.772Z,115.20
2018-02-09T12:02:24.351Z,117.80
2018-02-09T12:04:52.665Z,111.33
2018-02-09T12:07:20.236Z,116.50
2018-02-09T12:09:48.552Z,114.23
2018-02-09T12:12:16.814Z,120.33
2018-02-09T12:14:46.160Z,119.20
2018-02-09T12:17:14.488Z,110.37
2018-02-09T12:19:42.060Z,118.30
2018-02-09T12:22:09.623Z,119.73
2018-02-09T12:24:37.961Z,118.97
2018-02-09T12:27:05.514Z,102.07
2018-02-09T12:29:33.845Z,116.50
2018-02-09T12:32:01.393Z,126.37
2018-02-09T12:34:29.809Z,107.90
2018-02-09T12:36:57.360Z,119.53
2018-02-09T12:39:24.933Z,113.10
2018-02-09T12:41:52.480Z,116.27
2018-02-09T12:44:20.049Z,116.63
2018-02-09T12:46:47.611Z,122.07
2018-02-09T12:49:15.960Z,107.33
2018-02-09T12:51:43.569Z,118.67
2018-02-09T12:54:11.202Z,123.57
2018-02-09T12:56:39.540Z,114.73
2018-02-09T12:59:07.192Z,124.63
2018-02-09T13:01:34.777Z,120.17
2018-02-09T13:04:02.354Z,127.03
2018-02-09T13:06:30.772Z,126.10
2018-02-09T13:08:58.360Z,126.83
2018-02-09T13:11:25.952Z,131.37
2018-02-09T13:13:53.505Z,122.53
2018-02-09T13:16:21.854Z,122.40
2018-02-09T13:18:49.407Z,132.50
2018-02-09T13:21:16.988Z,140.20
2018-02-09T13:23:56.425Z,130.20
2018-02-09T13:26:24.017Z,123.60
2018-02-09T13:28:58.181Z,132.53
2018-02-09T13:31:25.741Z,127.53
2018-02-09T13:33:54.063Z,122.00
2018-02-09T13:36:33.410Z,131.10
2018-02-09T13:39:01.797Z,127.67
2018-02-09T13:41:29.450Z,131.73
2018-02-09T13:43:56.985Z,121.77
2018-02-09T13:46:25.317Z,134.17
2018-02-09T13:48:52.973Z,132.47
2018-02-09T13:51:20.563Z,140.47
2018-02-09T13:53:48.892Z,126.67
2018-02-09T13:56:16.554Z,127.07
2018-02-09T13:58:44.177Z,135.33
2018-02-09T14:01:13.928Z,130.23
2018-02-09T14:03:41.497Z,142.83
2018-02-09T14:06:09.050Z,141.83
2018-02-09T14:08:36.615Z,132.10
2018-02-09T14:11:04.931Z,138.83
2018-02-09T14:13:32.507Z,146.30
2018-02-09T14:16:00.821Z,134.23
2018-02-09T14:18:29.178Z,146.13
2018-02-09T14:20:56.733Z,140.67
2018-02-09T14:23:24.315Z,135.37
2018-02-09T14:25:51.866Z,135.40
2018-02-09T14:28:20.265Z,136.43
2018-02-09T14:30:48.590Z,142.60
2018-02-09T14:33:16.520Z,145.13
2018-02-09T14:35:44.080Z,135.40
2018-02-09T14:38:11.675Z,156.53
2018-02-09T14:40:39.278Z,135.10
2018-02-09T14:43:06.878Z,129.90
2018-02-09T14:45:34.437Z,139.50
2018-02-09T14:48:01.990Z,139.17
2018-02-09T14:50:29.556Z,134.17
2018-02-09T14:52:58.921Z,135.47
2018-02-09T14:55:26.513Z,151.90
2018-02-09T14:57:54.073Z,127.43
2018-02-09T15:00:21.644Z,131.60
2018-02-09T15:02:49.961Z,132.70
2018-02-09T15:05:17.529Z,131.03
2018-02-09T15:07:45.296Z,153.77
2018-02-09T15:10:12.860Z,122.73
2018-02-09T15:12:40.420Z,139.87
2018-02-09T15:15:08.811Z,128.47
2018-02-09T15:17:36.364Z,140.37
2018-02-09T15:20:04.721Z,130.03
2018-02-09T15:22:32.277Z,134.90
2018-02-09T15:24:59.879Z,128.73
2018-02-09T15:27:27.439Z,134.27
2018-02-09T15:29:55.025Z,145.50
2018-02-09T15:32:22.581Z,135.57
2018-02-09T15:34:50.157Z,125.87
2018-02-09T15:37:17.707Z,125.70
2018-02-09T15:39:45.293Z,140.03
2018-02-09T15:42:12.869Z,126.33
2018-02-09T15:44:41.197Z,117.67
2018-02-09T15:47:08.771Z,134.37
2018-02-09T15:49:36.748Z,129.23
2018-02-09T15:52:04.381Z,136.37
2018-02-09T15:54:31.912Z,153.53
2018-02-09T15:56:59.496Z,150.43
2018-02-09T15:59:27.053Z,139.10
2018-02-09T16:01:54.638Z,147.53
2018-02-09T16:04:22.963Z,142.03
2018-02-09T16:06:50.536Z,131.40
2018-02-09T16:09:18.091Z,142.70
2018-02-09T16:11:45.664Z,148.03
2018-02-09T16:14:13.263Z,148.83
2018-02-09T16:16:41.623Z,152.37
2018-02-09T16:19:09.358Z,130.07
2018-02-09T16:21:37.152Z,152.63
2018-02-09T16:24:04.946Z,147.20
2018-02-09T16:26:32.619Z,147.93
2018-02-09T16:29:01.154Z,155.13
2018-02-09T16:31:28.917Z,155.63
2018-02-09T16:33:56.730Z,156.50
2018-02-09T16:36:24.537Z,151.03
2018-02-09T16:38:52.382Z,159.13
2018-02-09T16:41:20.761Z,141.63
2018-02-09T16:43:48.614Z,144.53
2018-02-09T16:46:16.193Z,163.53
2018-02-09T16:48:43.764Z,160.03
2018-02-09T16:51:11.324Z,168.17
2018-02-09T16:53:38.898Z,155.60
2018-02-09T16:56:06.452Z,164.53
2018-02-09T16:58:34.025Z,149.53
2018-02-09T17:01:01.586Z,143.00
2018-02-09T17:03:29.929Z,158.93
2018-02-09T17:05:57.480Z,176.77
2018-02-09T17:08:25.090Z,158.00
2018-02-09T17:10:52.664Z,148.33
2018-02-09T17:13:20.253Z,153.87
2018-02-09T17:15:47.833Z,164.23
2018-02-09T17:18:15.400Z,156.40
2018-02-09T17:20:42.976Z,160.17
2018-02-09T17:23:10.548Z,163.77
2018-02-09T17:25:38.888Z,168.03
2018-02-09T17:28:06.655Z,175.33
2018-02-09T17:30:34.264Z,219.63
2018-02-09T17:33:01.819Z,198.50
2018-02-09T17:35:29.409Z,186.80
2018-02-09T17:37:57.249Z,200.40
2018-02-09T17:40:25.082Z,192.47
2018-02-09T17:42:52.666Z,211.67
2018-02-09T17:45:21.769Z,191.20
2018-02-09T17:47:49.586Z,205.30
2018-02-09T17:50:18.032Z,189.73
2018-02-09T17:52:45.600Z,190.33
2018-02-09T17:55:13.181Z,169.67
2018-02-09T17:57:40.729Z,199.23
2018-02-09T18:00:09.091Z,194.17
2018-02-09T18:02:36.728Z,162.53
2018-02-09T18:05:05.045Z,188.83
2018-02-09T18:07:32.622Z,166.53
2018-02-09T18:10:00.946Z,158.50
2018-02-09T18:12:28.520Z,179.63
2018-02-09T18:14:56.072Z,162.30
2018-02-09T18:17:29.117Z,163.50
2018-02-09T18:19:56.665Z,163.37
2018-02-09T18:22:24.241Z,160.93
2018-02-09T18:24:51.801Z,163.27
2018-02-09T18:27:19.381Z,168.73
2018-02-09T18:29:46.941Z,162.83
2018-02-09T18:32:14.536Z,155.07
2018-02-09T18:34:42.111Z,149.77
2018-02-09T18:37:09.699Z,163.67
2018-02-09T18:39:37.257Z,167.23
2018-02-09T18:42:04.828Z,161.37
2018-02-09T18:44:32.413Z,150.57
2018-02-09T18:47:00.009Z,162.47
2018-02-09T18:49:27.569Z,147.17
2018-02-09T18:51:55.125Z,162.00
2018-02-09T18:54:22.713Z,171.73
2018-02-09T18:56:51.032Z,164.80
2018-02-09T18:59:18.605Z,154.53
2018-02-09T19:01:46.161Z,151.83
2018-02-09T19:04:13.738Z,167.67
2018-02-09T19:06:41.293Z,175.40
2018-02-09T19:09:09.632Z,165.23
2018-02-09T19:11:37.190Z,157.97
2018-02-09T19:14:04.761Z,154.20
2018-02-09T19:16:33.090Z,160.10
2018-02-09T19:19:00.672Z,153.63
2018-02-09T19:21:28.216Z,162.73
2018-02-09T19:23:55.797Z,154.40
2018-02-09T19:26:23.352Z,146.00
2018-02-09T19:28:51.690Z,149.37
2018-02-09T19:31:20.042Z,144.17
2018-02-09T19:33:47.597Z,148.37
2018-02-09T19:36:15.937Z,162.07
2018-02-09T19:38:43.485Z,167.77
2018-02-09T19:41:11.817Z,142.47
2018-02-09T19:43:39.367Z,144.73
2018-02-09T19:46:07.726Z,154.70
2018-02-09T19:48:35.290Z,138.53
2018-02-09T19:51:02.855Z,142.23
2018-02-09T19:53:30.417Z,143.50
2018-02-09T19:55:58.138Z,149.97
2018-02-09T19:58:25.720Z,154.37
2018-02-09T20:00:53.309Z,145.23
2018-02-09T20:03:20.884Z,148.13
2018-02-09T20:05:48.469Z,155.53
2018-02-09T20:08:16.037Z,147.50
2018-02-09T20:10:44.351Z,149.00
2018-02-09T20:13:12.797Z,136.63
2018-02-09T20:15:40.456Z,141.43
2018-02-09T20:18:08.065Z,155.00
2018-02-09T20:20:35.627Z,162.33
2018-02-09T20:23:03.201Z,173.80
2018-02-09T20:25:30.753Z,157.20
2018-02-09T20:27:58.328Z,157.23
2018-02-09T20:30:25.884Z,165.27
2018-02-09T20:32:53.463Z,157.17
2018-02-09T20:35:21.085Z,171.57
2018-02-09T20:37:48.709Z,154.73
2018-02-09T20:40:16.267Z,155.27
2018-02-09T20:42:44.595Z,165.87
2018-02-09T20:45:12.170Z,176.57
2018-02-09T20:47:40.484Z,144.43
2018-02-09T20:50:08.057Z,167.63
2018-02-09T20:52:36.404Z,165.70
2018-02-09T20:55:03.980Z,168.40
2018-02-09T20:57:31.541Z,184.87
2018-02-09T20:59:59.116Z,169.63
2018-02-09T21:02:27.452Z,155.33
2018-02-09T21:04:55.040Z,184.77
2018-02-09T21:07:22.740Z,166.73
2018-02-09T21:09:50.338Z,149.73
2018-02-09T21:12:17.966Z,159.53
2018-02-09T21:14:46.403Z,169.37
2018-02-09T21:17:14.017Z,174.67
2018-02-09T21:19:41.612Z,171.57
2018-02-09T21:22:09.165Z,173.40
2018-02-09T21:24:37.648Z,173.80
2018-02-09T21:27:06.032Z,157.80
2018-02-09T21:29:33.714Z,174.13
2018-02-09T21:32:01.543Z,185.30
2018-02-09T21:34:29.120Z,166.47
2018-02-09T21:36:56.692Z,171.20
2018-02-09T21:39:24.384Z,163.33
2018-02-09T21:41:52.137Z,174.73
2018-02-09T21:44:19.816Z,153.00
2018-02-09T21:46:47.402Z,152.57
2018-02-09T21:49:15.532Z,150.40
2018-02-09T21:51:44.318Z,150.73
2018-02-09T21:54:11.899Z,161.00
2018-02-09T21:56:39.524Z,186.00
2018-02-09T21:59:07.968Z,173.60
2018-02-09T22:01:35.548Z,188.80
2018-02-09T22:04:03.125Z,189.87
2018-02-09T22:06:30.721Z,180.13
2018-02-09T22:08:58.508Z,195.37
2018-02-09T22:11:26.112Z,185.00
2018-02-09T22:13:53.680Z,178.60
2018-02-09T22:16:21.238Z,189.77
2018-02-09T22:18:49.581Z,205.10
2018-02-09T22:21:17.149Z,182.83
2018-02-09T22:23:44.740Z,196.90
2018-02-09T22:26:12.301Z,179.40
2018-02-09T22:28:39.881Z,178.00
2018-02-09T22:31:07.704Z,199.57
2018-02-09T22:33:35.343Z,192.93
2018-02-09T22:36:02.922Z,176.23
2018-02-09T22:38:31.345Z,179.30
2018-02-09T22:41:00.510Z,182.77
2018-02-09T22:43:28.077Z,186.27
2018-02-09T22:45:55.662Z,185.07
2018-02-09T22:48:23.221Z,173.67
2018-02-09T22:50:50.804Z,183.90
2018-02-09T22:53:19.129Z,179.53
2018-02-09T22:55:46.808Z,170.77
2018-02-09T22:58:14.409Z,180.63
2018-02-09T23:00:41.982Z,178.60
2018-02-09T23:03:09.539Z,174.57
2018-02-09T23:05:37.874Z,185.10
2018-02-09T23:08:06.193Z,164.90
2018-02-09T23:10:33.769Z,162.37
2018-02-09T23:13:01.328Z,188.73
2018-02-09T23:15:28.898Z,173.33
2018-02-09T23:17:57.245Z,154.27
2018-02-09T23:20:25.037Z,176.87
2018-02-09T23:22:52.713Z,173.33
2018-02-09T23:25:20.370Z,167.90
2018-02-09T23:27:47.945Z,184.57
2018-02-09T23:30:19.236Z,177.03
2018-02-09T23:32:46.817Z,176.07
2018-02-09T23:35:14.373Z,176.30
2018-02-09T23:37:42.897Z,186.97
2018-02-09T23:40:10.452Z,186.40
2018-02-09T23:42:38.030Z,171.60
2018-02-09T23:45:05.589Z,173.03
2018-02-09T23:47:33.173Z,183.77
2018-02-09T23:50:01.589Z,176.37
2018-02-09T23:52:29.165Z,187.00
2018-02-09T23:54:57.492Z,183.53
2018-02-09T23:57:25.086Z,201.43
2018-02-09T23:59:52.645Z,202.20
